createdAt,value
2018-12-30T00:00:07.420Z,13.50
2018-12-30T00:02:34.149Z,17.93
2018-12-30T00:05:01.607Z,14.30
2018-12-30T00:07:28.632Z,18.70
2018-12-30T00:09:55.360Z,17.00
2018-12-30T00:12:22.087Z,21.87
2018-12-30T00:14:48.813Z,12.60
2018-12-30T00:17:15.627Z,20.77
2018-12-30T00:19:42.766Z,16.13
2018-12-30T00:22:09.581Z,10.37
2018-12-30T00:24:36.411Z,17.63
2018-12-30T00:27:03.124Z,21.47
2018-12-30T00:29:29.951Z,18.73
2018-12-30T00:31:56.691Z,18.83
2018-12-30T00:34:23.495Z,22.53
2018-12-30T00:36:50.338Z,17.67
2018-12-30T00:39:17.057Z,17.50
2018-12-30T00:41:43.784Z,19.57
2018-12-30T00:44:10.500Z,18.07
2018-12-30T00:46:37.480Z,19.93
2018-12-30T00:49:04.320Z,11.57
2018-12-30T00:51:31.046Z,17.37
2018-12-30T00:53:58.884Z,19.40
2018-12-30T00:56:25.624Z,11.63
2018-12-30T00:58:52.343Z,15.83
2018-12-30T01:01:19.056Z,17.90
2018-12-30T01:03:47.093Z,20.50
2018-12-30T01:06:14.105Z,15.17
2018-12-30T01:08:40.820Z,14.47
2018-12-30T01:11:07.662Z,14.30
2018-12-30T01:13:34.375Z,20.10
2018-12-30T01:16:01.296Z,15.90
2018-12-30T01:18:28.039Z,14.73
2018-12-30T01:20:54.752Z,13.30
2018-12-30T01:23:21.460Z,15.63
2018-12-30T01:25:48.192Z,13.17
2018-12-30T01:28:34.540Z,11.13
2018-12-30T01:31:01.256Z,13.43
2018-12-30T01:33:28.403Z,14.67
2018-12-30T01:35:55.111Z,16.20
2018-12-30T01:38:22.127Z,12.97
2018-12-30T01:40:48.847Z,14.93
2018-12-30T01:43:15.576Z,18.17
2018-12-30T01:45:42.283Z,14.97
2018-12-30T01:48:08.987Z,17.20
2018-12-30T01:50:35.711Z,15.67
2018-12-30T01:53:03.124Z,13.00
2018-12-30T01:55:29.836Z,12.30
2018-12-30T01:57:56.556Z,14.77
2018-12-30T02:00:23.276Z,18.80
2018-12-30T02:02:50.041Z,14.37
2018-12-30T02:05:16.773Z,12.90
2018-12-30T02:07:43.489Z,18.20
2018-12-30T02:10:10.615Z,15.43
2018-12-30T02:12:37.331Z,11.83
2018-12-30T02:15:04.176Z,21.03
2018-12-30T02:17:30.887Z,15.20
2018-12-30T02:19:57.597Z,18.83
2018-12-30T02:22:24.320Z,17.43
2018-12-30T02:24:51.264Z,15.20
2018-12-30T02:27:17.999Z,20.87
2018-12-30T02:29:44.747Z,15.57
2018-12-30T02:32:11.535Z,17.60
2018-12-30T02:34:38.248Z,13.90
2018-12-30T02:37:04.958Z,15.80
2018-12-30T02:39:31.692Z,18.43
2018-12-30T02:41:58.406Z,17.47
2018-12-30T02:44:25.133Z,13.23
2018-12-30T02:46:51.862Z,19.97
2018-12-30T02:49:18.571Z,13.07
2018-12-30T02:51:50.212Z,11.83
2018-12-30T02:54:13.914Z,17.77
2018-12-30T02:56:40.635Z,16.00
2018-12-30T02:59:07.368Z,12.93
2018-12-30T03:01:34.076Z,14.83
2018-12-30T03:04:00.789Z,15.07
2018-12-30T03:06:27.809Z,13.57
2018-12-30T03:08:54.516Z,13.83
2018-12-30T03:11:21.240Z,18.67
2018-12-30T03:13:47.948Z,16.33
2018-12-30T03:16:14.673Z,14.70
2018-12-30T03:18:41.423Z,21.13
2018-12-30T03:21:08.146Z,13.10
2018-12-30T03:23:34.869Z,16.10
2018-12-30T03:26:01.763Z,15.70
2018-12-30T03:28:28.488Z,17.57
2018-12-30T03:30:55.214Z,13.43
2018-12-30T03:33:21.987Z,17.00
2018-12-30T03:35:48.736Z,13.40
2018-12-30T03:38:15.445Z,11.97
2018-12-30T03:40:42.172Z,10.73
2018-12-30T03:43:08.993Z,12.53
2018-12-30T03:45:35.712Z,14.47
2018-12-30T03:48:02.445Z,14.80
2018-12-30T03:50:29.172Z,10.33
2018-12-30T03:52:56.003Z,21.40
2018-12-30T03:55:22.721Z,11.43
2018-12-30T03:57:49.452Z,15.77
2018-12-30T04:00:16.172Z,14.83
2018-12-30T04:02:42.887Z,14.57
2018-12-30T04:05:09.615Z,15.87
2018-12-30T04:07:36.619Z,18.57
2018-12-30T04:10:04.023Z,10.50
2018-12-30T04:12:30.742Z,13.20
2018-12-30T04:14:57.469Z,15.00
2018-12-30T04:17:24.200Z,12.40
2018-12-30T04:19:50.921Z,13.00
2018-12-30T04:22:17.646Z,9.97
2018-12-30T04:24:44.375Z,14.33
2018-12-30T04:27:11.100Z,13.30
2018-12-30T04:29:37.883Z,10.27
2018-12-30T04:32:04.652Z,12.30
2018-12-30T04:34:31.387Z,13.73
2018-12-30T04:36:58.111Z,15.97
2018-12-30T04:39:24.815Z,11.10
2018-12-30T04:41:51.539Z,13.87
2018-12-30T04:44:18.261Z,12.60
2018-12-30T04:46:44.991Z,12.57
2018-12-30T04:49:11.715Z,8.47
2018-12-30T04:51:38.560Z,16.77
2018-12-30T04:54:05.296Z,8.13
2018-12-30T04:56:32.009Z,12.60
2018-12-30T04:58:58.740Z,10.90
2018-12-30T05:01:25.461Z,12.47
2018-12-30T05:03:52.184Z,18.63
2018-12-30T05:06:18.904Z,9.27
2018-12-30T05:08:45.620Z,15.23
2018-12-30T05:11:12.332Z,12.90
2018-12-30T05:13:39.070Z,12.37
2018-12-30T05:16:05.776Z,10.27
2018-12-30T05:18:32.503Z,10.27
2018-12-30T05:20:59.293Z,13.20
2018-12-30T05:23:26.007Z,12.53
2018-12-30T05:25:52.731Z,11.10
2018-12-30T05:28:19.452Z,13.63
2018-12-30T05:30:46.168Z,11.90
2018-12-30T05:33:12.888Z,14.87
2018-12-30T05:35:39.604Z,14.20
2018-12-30T05:38:06.318Z,12.23
2018-12-30T05:40:33.088Z,13.70
2018-12-30T05:42:59.808Z,10.50
2018-12-30T05:45:26.529Z,14.90
2018-12-30T05:47:53.243Z,12.83
2018-12-30T05:50:20.109Z,12.63
2018-12-30T05:52:46.853Z,15.17
2018-12-30T05:55:13.565Z,12.83
2018-12-30T05:57:40.312Z,16.07
2018-12-30T06:00:07.388Z,15.80
2018-12-30T06:02:34.160Z,13.20
2018-12-30T06:05:00.884Z,14.20
2018-12-30T06:07:27.605Z,10.07
2018-12-30T06:09:54.480Z,17.67
2018-12-30T06:12:21.211Z,13.77
2018-12-30T06:14:47.989Z,12.87
2018-12-30T06:17:14.723Z,11.30
2018-12-30T06:19:41.432Z,14.23
2018-12-30T06:22:08.151Z,10.13
2018-12-30T06:24:34.869Z,11.00
2018-12-30T06:27:01.709Z,9.90
2018-12-30T06:29:28.432Z,13.07
2018-12-30T06:31:55.143Z,9.07
2018-12-30T06:34:21.856Z,19.17
2018-12-30T06:37:08.209Z,12.87
2018-12-30T06:40:11.456Z,13.03
2018-12-30T06:42:36.536Z,11.43
2018-12-30T06:45:03.548Z,11.90
2018-12-30T06:47:30.267Z,9.80
2018-12-30T06:49:57.022Z,10.63
2018-12-30T06:52:23.734Z,12.60
2018-12-30T06:54:50.445Z,14.87
2018-12-30T06:57:17.159Z,12.03
2018-12-30T06:59:43.891Z,9.73
2018-12-30T07:02:10.617Z,11.77
2018-12-30T07:04:37.324Z,10.23
2018-12-30T07:07:04.418Z,10.90
2018-12-30T07:09:31.223Z,13.77
2018-12-30T07:11:57.924Z,12.27
2018-12-30T07:14:24.659Z,10.33
2018-12-30T07:16:51.380Z,8.13
2018-12-30T07:19:18.101Z,14.70
2018-12-30T07:21:45.121Z,14.03
2018-12-30T07:24:11.836Z,9.53
2018-12-30T07:26:38.561Z,11.93
2018-12-30T07:29:05.280Z,15.27
2018-12-30T07:31:32.288Z,11.67
2018-12-30T07:33:59.000Z,14.57
2018-12-30T07:36:25.722Z,11.50
2018-12-30T07:38:54.149Z,13.43
2018-12-30T07:41:21.105Z,10.63
2018-12-30T07:43:47.832Z,9.70
2018-12-30T07:46:14.536Z,15.90
2018-12-30T07:48:41.240Z,10.70
2018-12-30T07:51:07.956Z,13.13
2018-12-30T07:53:34.678Z,12.57
2018-12-30T07:56:01.393Z,10.37
2018-12-30T07:58:28.119Z,13.73
2018-12-30T08:00:54.831Z,11.17
2018-12-30T08:03:21.860Z,9.40
2018-12-30T08:05:48.924Z,7.87
2018-12-30T08:08:15.749Z,13.43
2018-12-30T08:10:42.464Z,13.93
2018-12-30T08:13:09.177Z,12.57
2018-12-30T08:15:35.892Z,15.53
2018-12-30T08:18:02.616Z,10.43
2018-12-30T08:20:29.341Z,11.20
2018-12-30T08:22:56.055Z,10.43
2018-12-30T08:25:22.907Z,11.40
2018-12-30T08:27:49.667Z,12.43
2018-12-30T08:30:17.041Z,16.43
2018-12-30T08:32:43.872Z,14.53
2018-12-30T08:35:11.025Z,11.20
2018-12-30T08:37:57.616Z,12.47
2018-12-30T08:40:24.335Z,13.43
2018-12-30T08:42:51.063Z,9.43
2018-12-30T08:45:17.772Z,13.40
2018-12-30T08:47:44.501Z,12.37
2018-12-30T08:50:11.223Z,10.97
2018-12-30T08:52:37.952Z,8.43
2018-12-30T08:55:04.872Z,10.57
2018-12-30T08:57:31.609Z,13.63
2018-12-30T08:59:58.321Z,14.70
2018-12-30T09:02:25.141Z,10.27
2018-12-30T09:04:52.209Z,15.90
2018-12-30T09:07:18.920Z,12.20
2018-12-30T09:09:45.740Z,11.93
2018-12-30T09:12:12.444Z,13.40
2018-12-30T09:14:39.420Z,12.80
2018-12-30T09:17:06.236Z,12.13
2018-12-30T09:19:32.952Z,16.40
2018-12-30T09:21:59.672Z,16.40
2018-12-30T09:24:26.403Z,9.17
2018-12-30T09:26:53.155Z,15.47
2018-12-30T09:29:19.944Z,10.77
2018-12-30T09:31:46.667Z,16.07
2018-12-30T09:34:13.385Z,16.33
2018-12-30T09:36:40.122Z,13.10
2018-12-30T09:39:06.968Z,16.33
2018-12-30T09:41:33.699Z,9.53
2018-12-30T09:44:00.413Z,13.80
2018-12-30T09:46:27.124Z,8.97
2018-12-30T09:48:53.845Z,17.60
2018-12-30T09:51:20.577Z,16.13
2018-12-30T09:53:47.303Z,14.57
2018-12-30T09:56:14.024Z,12.73
2018-12-30T09:58:40.731Z,16.90
2018-12-30T10:01:07.452Z,15.40
2018-12-30T10:03:34.161Z,14.13
2018-12-30T10:06:01.208Z,11.57
2018-12-30T10:08:27.925Z,12.57
2018-12-30T10:10:54.648Z,11.87
2018-12-30T10:13:21.370Z,12.17
2018-12-30T10:15:48.152Z,14.70
2018-12-30T10:18:14.847Z,14.53
2018-12-30T10:20:41.561Z,12.97
2018-12-30T10:23:08.281Z,13.87
2018-12-30T10:25:35.012Z,13.47
2018-12-30T10:28:01.919Z,17.87
2018-12-30T10:30:29.477Z,13.47
2018-12-30T10:32:56.676Z,12.53
2018-12-30T10:35:23.379Z,15.83
2018-12-30T10:37:50.192Z,16.43
2018-12-30T10:40:16.920Z,14.30
2018-12-30T10:42:43.725Z,15.20
2018-12-30T10:45:10.909Z,19.87
2018-12-30T10:47:37.639Z,16.47
2018-12-30T10:50:04.584Z,14.67
2018-12-30T10:52:31.313Z,18.60
2018-12-30T10:54:58.531Z,22.13
2018-12-30T10:57:25.290Z,13.63
2018-12-30T10:59:52.000Z,16.43
2018-12-30T11:02:18.724Z,16.13
2018-12-30T11:04:45.443Z,13.03
2018-12-30T11:07:12.169Z,18.47
2018-12-30T11:09:38.891Z,18.83
2018-12-30T11:12:05.873Z,19.83
2018-12-30T11:14:32.601Z,19.30
2018-12-30T11:16:59.487Z,15.97
2018-12-30T11:19:26.288Z,15.33
2018-12-30T11:21:53.046Z,18.50
2018-12-30T11:24:19.772Z,16.67
2018-12-30T11:26:46.491Z,18.97
2018-12-30T11:29:13.237Z,17.20
2018-12-30T11:31:39.959Z,21.17
2018-12-30T11:34:06.684Z,15.50
2018-12-30T11:36:33.412Z,20.60
2018-12-30T11:39:00.236Z,18.37
2018-12-30T11:41:26.972Z,19.80
2018-12-30T11:43:53.719Z,19.00
2018-12-30T11:46:20.448Z,16.07
2018-12-30T11:48:47.170Z,19.40
2018-12-30T11:51:13.887Z,16.97
2018-12-30T11:53:40.624Z,16.20
2018-12-30T11:56:07.460Z,20.57
2018-12-30T11:58:34.177Z,16.43
2018-12-30T12:01:01.004Z,15.47
2018-12-30T12:03:27.727Z,22.93
2018-12-30T12:05:54.443Z,19.00
2018-12-30T12:08:21.211Z,16.03
2018-12-30T12:10:47.924Z,17.03
2018-12-30T12:13:14.662Z,17.37
2018-12-30T12:15:41.624Z,21.30
2018-12-30T12:18:08.384Z,14.73
2018-12-30T12:20:35.136Z,20.10
2018-12-30T12:23:01.934Z,15.20
2018-12-30T12:25:28.651Z,17.13
2018-12-30T12:27:55.377Z,13.43
2018-12-30T12:30:22.565Z,15.80
2018-12-30T12:32:49.272Z,15.73
2018-12-30T12:35:16.026Z,22.80
2018-12-30T12:37:42.744Z,17.33
2018-12-30T12:40:09.459Z,14.73
2018-12-30T12:42:36.171Z,17.60
2018-12-30T12:45:03.704Z,14.77
2018-12-30T12:47:30.420Z,16.97
2018-12-30T12:49:57.139Z,20.13
2018-12-30T12:52:24.277Z,12.13
2018-12-30T12:54:50.991Z,19.77
2018-12-30T12:57:17.712Z,17.00
2018-12-30T12:59:44.415Z,17.27
2018-12-30T13:02:11.128Z,17.83
2018-12-30T13:04:37.843Z,16.37
2018-12-30T13:07:04.552Z,20.60
2018-12-30T13:09:31.404Z,18.70
2018-12-30T13:11:58.225Z,18.43
2018-12-30T13:14:24.936Z,17.73
2018-12-30T13:16:51.671Z,15.40
2018-12-30T13:19:18.368Z,16.67
2018-12-30T13:21:45.084Z,17.67
2018-12-30T13:24:11.800Z,16.40
2018-12-30T13:26:38.521Z,15.17
2018-12-30T13:29:05.323Z,16.00
2018-12-30T13:31:32.054Z,19.20
2018-12-30T13:33:59.014Z,16.67
2018-12-30T13:36:25.740Z,17.67
2018-12-30T13:38:52.468Z,15.90
2018-12-30T13:41:19.188Z,17.70
2018-12-30T13:43:45.897Z,17.77
2018-12-30T13:46:12.620Z,16.77
2018-12-30T13:48:39.343Z,19.97
2018-12-30T13:51:06.160Z,19.07
2018-12-30T13:53:32.899Z,16.03
2018-12-30T13:55:59.716Z,15.93
2018-12-30T13:58:26.435Z,17.87
2018-12-30T14:00:53.144Z,20.40
2018-12-30T14:03:20.244Z,18.57
2018-12-30T14:05:46.963Z,17.90
2018-12-30T14:08:13.927Z,16.97
2018-12-30T14:10:40.634Z,19.63
2018-12-30T14:13:07.340Z,17.33
2018-12-30T14:15:34.068Z,18.30
2018-12-30T14:18:00.784Z,17.17
2018-12-30T14:20:27.495Z,21.73
2018-12-30T14:22:54.333Z,20.67
2018-12-30T14:25:21.047Z,22.20
2018-12-30T14:27:47.753Z,20.10
2018-12-30T14:30:17.699Z,22.30
2018-12-30T14:32:44.507Z,20.30
2018-12-30T14:35:11.275Z,26.93
2018-12-30T14:37:37.972Z,23.57
2018-12-30T14:40:05.393Z,23.90
2018-12-30T14:42:32.128Z,21.90
2018-12-30T14:44:58.845Z,20.00
2018-12-30T14:47:25.567Z,23.23
2018-12-30T14:49:52.304Z,23.73
2018-12-30T14:52:19.019Z,26.40
2018-12-30T14:54:45.864Z,26.87
2018-12-30T14:57:12.632Z,22.57
2018-12-30T14:59:39.362Z,29.63
2018-12-30T15:02:06.092Z,30.13
2018-12-30T15:04:32.834Z,30.80
2018-12-30T15:06:59.571Z,31.00
2018-12-30T15:09:26.593Z,36.27
2018-12-30T15:11:53.436Z,37.50
2018-12-30T15:14:20.172Z,36.37
2018-12-30T15:16:46.911Z,39.77
2018-12-30T15:19:13.638Z,32.03
2018-12-30T15:21:40.620Z,39.17
2018-12-30T15:24:07.363Z,48.77
2018-12-30T15:26:34.136Z,39.33
2018-12-30T15:29:00.876Z,39.87
2018-12-30T15:31:27.588Z,39.67
2018-12-30T15:33:54.311Z,42.97
2018-12-30T15:36:21.040Z,43.90
2018-12-30T15:38:47.772Z,49.03
2018-12-30T15:41:14.501Z,45.27
2018-12-30T15:43:41.227Z,43.17
2018-12-30T15:46:07.959Z,45.63
2018-12-30T15:48:34.676Z,47.30
2018-12-30T15:51:01.500Z,47.13
2018-12-30T15:53:28.219Z,50.63
2018-12-30T15:55:54.960Z,50.43
2018-12-30T15:58:21.699Z,54.13
2018-12-30T16:00:49.233Z,52.80
2018-12-30T16:03:15.999Z,55.63
2018-12-30T16:05:42.723Z,54.67
2018-12-30T16:08:09.492Z,55.87
2018-12-30T16:10:36.217Z,55.57
2018-12-30T16:13:02.941Z,57.90
2018-12-30T16:15:29.667Z,56.23
2018-12-30T16:17:56.389Z,61.97
2018-12-30T16:20:23.124Z,61.67
2018-12-30T16:22:49.907Z,69.07
2018-12-30T16:25:16.645Z,67.27
2018-12-30T16:27:43.384Z,65.57
2018-12-30T16:30:16.899Z,67.30
2018-12-30T16:32:43.676Z,69.87
2018-12-30T16:35:10.404Z,71.57
2018-12-30T16:37:37.135Z,70.70
2018-12-30T16:40:04.536Z,55.67
2018-12-30T16:42:31.239Z,70.20
2018-12-30T16:44:57.947Z,72.30
2018-12-30T16:47:24.678Z,58.80
2018-12-30T16:49:51.387Z,56.90
2018-12-30T16:52:18.109Z,57.50
2018-12-30T16:54:44.853Z,64.63
2018-12-30T16:57:11.567Z,71.73
2018-12-30T16:59:38.283Z,71.47
2018-12-30T17:02:05.097Z,66.47
2018-12-30T17:04:31.855Z,80.67
2018-12-30T17:06:58.581Z,63.03
2018-12-30T17:09:25.784Z,81.73
2018-12-30T17:11:52.569Z,70.50
2018-12-30T17:14:19.324Z,74.00
2018-12-30T17:16:46.047Z,56.47
2018-12-30T17:19:12.783Z,72.73
2018-12-30T17:21:39.574Z,66.73
2018-12-30T17:24:06.403Z,56.03
2018-12-30T17:26:33.131Z,75.53
2018-12-30T17:28:59.852Z,80.13
2018-12-30T17:31:26.587Z,61.27
2018-12-30T17:33:53.324Z,75.00
2018-12-30T17:36:20.168Z,64.60
2018-12-30T17:38:46.896Z,47.93
2018-12-30T17:41:13.620Z,79.87
2018-12-30T17:43:40.415Z,57.27
2018-12-30T17:46:07.150Z,68.70
2018-12-30T17:48:33.875Z,64.27
2018-12-30T17:51:00.600Z,54.93
2018-12-30T17:53:27.783Z,65.70
2018-12-30T17:55:54.825Z,68.03
2018-12-30T17:58:21.556Z,61.90
2018-12-30T18:00:48.279Z,61.57
2018-12-30T18:03:15.344Z,62.20
2018-12-30T18:05:42.187Z,55.80
2018-12-30T18:08:08.925Z,70.33
2018-12-30T18:10:35.648Z,63.27
2018-12-30T18:13:02.464Z,58.37
2018-12-30T18:15:29.308Z,77.30
2018-12-30T18:17:56.048Z,70.27
2018-12-30T18:20:22.785Z,67.00
2018-12-30T18:22:49.496Z,51.40
2018-12-30T18:25:16.520Z,66.03
2018-12-30T18:27:43.257Z,57.17
2018-12-30T18:30:15.924Z,60.23
2018-12-30T18:32:42.656Z,70.47
2018-12-30T18:35:09.588Z,50.47
2018-12-30T18:37:36.324Z,50.33
2018-12-30T18:40:03.773Z,71.87
2018-12-30T18:42:30.496Z,74.27
2018-12-30T18:44:57.223Z,65.17
2018-12-30T18:47:23.947Z,60.13
2018-12-30T18:49:50.684Z,60.33
2018-12-30T18:52:17.524Z,58.60
2018-12-30T18:54:44.267Z,56.90
2018-12-30T18:57:11.240Z,61.63
2018-12-30T18:59:37.960Z,56.93
2018-12-30T19:02:04.694Z,53.83
2018-12-30T19:04:31.416Z,69.03
2018-12-30T19:06:58.600Z,57.03
2018-12-30T19:09:25.316Z,59.60
2018-12-30T19:11:52.056Z,60.93
2018-12-30T19:14:18.785Z,62.17
2018-12-30T19:16:45.514Z,51.90
2018-12-30T19:19:12.232Z,63.77
2018-12-30T19:21:38.952Z,64.50
2018-12-30T19:24:05.687Z,56.47
2018-12-30T19:26:32.649Z,59.77
2018-12-30T19:28:59.374Z,67.77
2018-12-30T19:31:26.396Z,59.70
2018-12-30T19:33:53.149Z,49.90
2018-12-30T19:36:19.881Z,53.17
2018-12-30T19:38:46.598Z,45.67
2018-12-30T19:41:13.323Z,49.97
2018-12-30T19:43:40.057Z,55.33
2018-12-30T19:46:06.818Z,58.10
2018-12-30T19:48:33.537Z,47.07
2018-12-30T19:51:00.266Z,50.93
2018-12-30T19:53:26.975Z,52.33
2018-12-30T19:55:53.693Z,51.67
2018-12-30T19:58:20.422Z,45.43
2018-12-30T20:00:47.145Z,29.83
2018-12-30T20:03:13.868Z,40.83
2018-12-30T20:05:40.611Z,32.13
2018-12-30T20:08:07.348Z,49.77
2018-12-30T20:10:34.079Z,31.50
2018-12-30T20:13:00.795Z,30.00
2018-12-30T20:15:27.624Z,32.43
2018-12-30T20:17:54.347Z,42.27
2018-12-30T20:20:21.064Z,35.50
2018-12-30T20:22:47.800Z,30.63
2018-12-30T20:25:14.511Z,36.83
2018-12-30T20:27:41.236Z,33.67
2018-12-30T20:30:16.386Z,28.67
2018-12-30T20:32:43.103Z,35.70
2018-12-30T20:35:09.825Z,36.23
2018-12-30T20:37:36.567Z,29.70
2018-12-30T20:40:03.944Z,33.53
2018-12-30T20:42:30.656Z,40.93
2018-12-30T20:44:57.380Z,33.53
2018-12-30T20:47:24.115Z,31.07
2018-12-30T20:49:50.883Z,31.97
2018-12-30T20:52:17.608Z,27.70
2018-12-30T20:54:44.340Z,29.83
2018-12-30T20:57:11.067Z,31.23
2018-12-30T20:59:37.807Z,31.20
2018-12-30T21:02:04.540Z,29.17
2018-12-30T21:04:31.251Z,33.53
2018-12-30T21:06:57.962Z,29.07
2018-12-30T21:09:24.687Z,40.77
2018-12-30T21:11:51.407Z,31.00
2018-12-30T21:14:18.119Z,29.90
2018-12-30T21:16:44.844Z,33.73
2018-12-30T21:19:11.560Z,26.07
2018-12-30T21:21:38.325Z,27.43
2018-12-30T21:24:05.143Z,34.87
2018-12-30T21:26:31.868Z,39.07
2018-12-30T21:28:58.591Z,37.97
2018-12-30T21:31:25.320Z,42.73
2018-12-30T21:33:52.437Z,46.37
2018-12-30T21:36:19.155Z,42.03
2018-12-30T21:38:45.892Z,55.47
2018-12-30T21:41:12.736Z,34.67
2018-12-30T21:43:39.828Z,33.87
2018-12-30T21:46:06.556Z,49.67
2018-12-30T21:48:33.414Z,48.90
2018-12-30T21:51:00.143Z,38.60
2018-12-30T21:53:26.857Z,35.90
2018-12-30T21:55:53.585Z,41.77
2018-12-30T21:58:20.407Z,30.30
2018-12-30T22:00:47.136Z,40.07
2018-12-30T22:03:13.880Z,34.43
2018-12-30T22:05:40.604Z,39.33
2018-12-30T22:08:07.604Z,38.87
2018-12-30T22:10:34.324Z,43.07
2018-12-30T22:13:01.528Z,39.83
2018-12-30T22:15:28.251Z,38.77
2018-12-30T22:17:54.976Z,50.20
2018-12-30T22:20:21.793Z,44.93
2018-12-30T22:22:48.523Z,48.97
2018-12-30T22:25:15.351Z,65.97
2018-12-30T22:27:42.092Z,49.77
2018-12-30T22:30:09.021Z,34.83
2018-12-30T22:32:35.756Z,38.27
2018-12-30T22:35:02.700Z,49.53
2018-12-30T22:37:29.431Z,50.63
2018-12-30T22:39:56.255Z,49.83
2018-12-30T22:42:23.434Z,43.37
2018-12-30T22:44:50.153Z,42.93
2018-12-30T22:47:16.868Z,38.47
2018-12-30T22:49:43.579Z,37.17
2018-12-30T22:52:10.305Z,47.37
2018-12-30T22:54:37.020Z,53.57
2018-12-30T22:57:03.762Z,41.53
2018-12-30T22:59:30.491Z,44.03
2018-12-30T23:01:57.204Z,35.47
2018-12-30T23:04:23.931Z,38.70
2018-12-30T23:06:50.653Z,38.07
2018-12-30T23:09:17.379Z,38.03
2018-12-30T23:11:44.120Z,37.10
2018-12-30T23:14:11.152Z,39.93
2018-12-30T23:16:37.876Z,41.20
2018-12-30T23:19:04.616Z,42.90
2018-12-30T23:21:31.333Z,33.73
2018-12-30T23:23:58.066Z,37.03
2018-12-30T23:26:24.780Z,35.00
2018-12-30T23:28:51.506Z,40.10
2018-12-30T23:31:18.227Z,36.23
2018-12-30T23:33:44.943Z,33.87
2018-12-30T23:36:11.679Z,33.27
2018-12-30T23:38:38.493Z,66.33
2018-12-30T23:41:05.204Z,30.90
2018-12-30T23:43:31.901Z,53.77
2018-12-30T23:45:58.621Z,38.23
2018-12-30T23:48:25.348Z,33.40
2018-12-30T23:50:52.057Z,33.63
2018-12-30T23:53:18.783Z,26.20
2018-12-30T23:55:45.516Z,35.60
2018-12-30T23:58:12.243Z,30.27
